Time;durP1;ratioP1;P1;durP2;ratioP2;P2;SDS_P1;SDS_P2;PMS_P1;PMS_P2;Temp;Humidity;BMP_temperature;BMP_pressure;BME280_temperature;BME280_humidity;BME280_pressure;Samples;Min_cycle;Max_cycle;Signal;HPM_P1;HPM_P2
2021/10/15 00:00:49;;;;;;;6.60;4.78;;;9.30;99.90;;;;;;5075316;28;20209;-70
2021/10/15 00:03:16;;;;;;;7.47;5.53;;;9.20;99.90;;;;;;5074822;28;20206;-69
2021/10/15 00:05:43;;;;;;;5.53;4.68;;;9.30;99.90;;;;;;5074399;28;20651;-69
2021/10/15 00:08:10;;;;;;;6.55;5.05;;;9.30;99.90;;;;;;5074087;28;20230;-70
2021/10/15 00:10:37;;;;;;;7.05;5.70;;;9.40;99.90;;;;;;5074387;28;20285;-71
2021/10/15 00:13:04;;;;;;;7.82;5.82;;;9.30;99.90;;;;;;5075064;28;20203;-71
2021/10/15 00:15:30;;;;;;;8.52;6.05;;;9.20;99.90;;;;;;5075455;28;20297;-71
2021/10/15 00:17:59;;;;;;;9.43;5.65;;;9.10;99.90;;;;;;5074990;28;20219;-71
2021/10/15 00:20:25;;;;;;;8.80;5.70;;;9.00;99.90;;;;;;5074984;28;20294;-72
2021/10/15 00:22:52;;;;;;;9.18;5.15;;;9.00;99.90;;;;;;5075624;28;20206;-72
2021/10/15 00:25:19;;;;;;;7.82;5.50;;;8.80;99.90;;;;;;5075665;28;20213;-72
2021/10/15 00:27:46;;;;;;;7.65;5.70;;;8.60;99.90;;;;;;5074564;28;20722;-73
2021/10/15 00:30:13;;;;;;;8.65;5.95;;;8.50;99.90;;;;;;5076292;28;20203;-74
2021/10/15 00:32:40;;;;;;;8.70;5.63;;;8.60;99.90;;;;;;5076904;28;20230;-76
2021/10/15 00:35:09;;;;;;;7.05;5.50;;;8.60;99.90;;;;;;5076826;28;20317;-76
2021/10/15 00:37:36;;;;;;;8.63;5.55;;;8.70;99.90;;;;;;5076054;28;20225;-75
2021/10/15 00:40:03;;;;;;;8.65;5.47;;;8.80;99.90;;;;;;5076203;28;20294;-75
2021/10/15 00:42:30;;;;;;;10.23;5.68;;;8.90;99.90;;;;;;5075121;28;20521;-76
2021/10/15 00:44:57;;;;;;;7.72;5.90;;;8.90;99.90;;;;;;5074884;28;20582;-74
2021/10/15 00:47:24;;;;;;;9.68;6.25;;;8.80;99.90;;;;;;5075518;28;20226;-76
2021/10/15 00:49:51;;;;;;;8.68;5.80;;;8.80;99.90;;;;;;5076125;28;20293;-76
2021/10/15 00:52:19;;;;;;;8.75;5.90;;;8.60;99.90;;;;;;5078156;28;20285;-77
2021/10/15 00:54:48;;;;;;;8.95;5.68;;;8.60;99.90;;;;;;5077833;28;20202;-75
2021/10/15 00:57:16;;;;;;;8.85;6.03;;;8.50;99.90;;;;;;5075562;28;20206;-76
2021/10/15 00:59:43;;;;;;;8.13;6.15;;;8.40;99.90;;;;;;5075288;28;20224;-76
2021/10/15 01:02:10;;;;;;;7.55;5.20;;;8.30;99.90;;;;;;5075941;28;20207;-76
2021/10/15 01:04:37;;;;;;;9.65;5.95;;;8.20;99.90;;;;;;5076060;28;20209;-76
2021/10/15 01:07:05;;;;;;;8.10;5.55;;;8.30;99.90;;;;;;5076182;28;20210;-76
2021/10/15 01:09:33;;;;;;;7.25;5.50;;;8.40;99.90;;;;;;5075979;28;20199;-75
2021/10/15 01:12:01;;;;;;;6.88;5.03;;;8.40;99.90;;;;;;5076497;28;20286;-76
2021/10/15 01:14:28;;;;;;;4.47;4.05;;;8.50;99.90;;;;;;5076899;28;20209;-77
2021/10/15 01:16:55;;;;;;;6.00;4.13;;;8.50;99.90;;;;;;5076860;28;20564;-73
2021/10/15 01:19:23;;;;;;;8.50;4.60;;;8.40;99.90;;;;;;5077915;28;20583;-73
2021/10/15 01:21:51;;;;;;;7.50;5.38;;;8.30;99.90;;;;;;5078196;28;20579;-71
2021/10/15 01:24:18;;;;;;;7.72;4.57;;;8.30;99.90;;;;;;5076602;28;20301;-72
2021/10/15 01:26:45;;;;;;;9.80;5.65;;;8.40;99.90;;;;;;5076745;28;20219;-72
2021/10/15 01:29:12;;;;;;;9.05;5.43;;;8.50;99.90;;;;;;5077110;28;20317;-72
2021/10/15 01:31:39;;;;;;;9.02;5.43;;;8.40;99.90;;;;;;5077579;28;20213;-72
2021/10/15 01:34:06;;;;;;;7.38;4.95;;;8.30;99.90;;;;;;5077707;28;20217;-73
2021/10/15 01:36:33;;;;;;;8.77;5.43;;;8.10;99.90;;;;;;5077753;28;20203;-72
2021/10/15 01:39:01;;;;;;;7.03;4.95;;;8.00;99.90;;;;;;5078386;28;20314;-72
2021/10/15 01:41:28;;;;;;;7.57;5.32;;;8.00;99.90;;;;;;5076816;28;20297;-71
2021/10/15 01:43:54;;;;;;;6.35;4.70;;;8.00;99.90;;;;;;5077356;28;20338;-72
2021/10/15 01:46:21;;;;;;;6.65;4.57;;;8.10;99.90;;;;;;5077303;28;20216;-72
2021/10/15 01:48:48;;;;;;;7.70;4.82;;;8.20;99.90;;;;;;5077559;28;20225;-72
2021/10/15 01:51:15;;;;;;;7.78;4.35;;;8.20;99.90;;;;;;5077345;28;20571;-72
2021/10/15 01:53:42;;;;;;;6.35;4.43;;;8.20;99.90;;;;;;5075935;28;20198;-72
2021/10/15 01:56:11;;;;;;;6.25;4.70;;;8.30;99.90;;;;;;5076388;28;20199;-72
2021/10/15 01:58:37;;;;;;;8.30;4.93;;;8.30;99.90;;;;;;5077503;28;20215;-72
2021/10/15 02:01:05;;;;;;;7.07;5.15;;;8.20;99.90;;;;;;5077632;28;20229;-71
2021/10/15 02:03:31;;;;;;;6.10;4.10;;;8.10;99.90;;;;;;5077595;28;20210;-72
2021/10/15 02:05:58;;;;;;;5.88;4.43;;;8.20;99.90;;;;;;5077062;28;20720;-72
2021/10/15 02:08:25;;;;;;;5.70;3.95;;;8.20;99.90;;;;;;5076891;28;20775;-72
2021/10/15 02:10:52;;;;;;;6.30;4.35;;;8.20;99.90;;;;;;5076861;28;20739;-72
2021/10/15 02:13:20;;;;;;;6.43;4.05;;;8.20;99.90;;;;;;5076930;28;20290;-71
2021/10/15 02:15:47;;;;;;;6.35;4.50;;;8.30;99.90;;;;;;5077280;28;20252;-72
2021/10/15 02:18:16;;;;;;;5.63;4.10;;;8.30;99.90;;;;;;5076356;28;20251;-72
2021/10/15 02:20:43;;;;;;;7.03;4.32;;;8.20;99.90;;;;;;5076495;28;20202;-72
2021/10/15 02:23:10;;;;;;;6.15;4.07;;;8.10;99.90;;;;;;5077601;28;20209;-72
2021/10/15 02:25:37;;;;;;;6.57;4.45;;;8.20;99.90;;;;;;5077236;28;20242;-72
2021/10/15 02:28:04;;;;;;;6.80;4.47;;;8.20;99.90;;;;;;5076752;28;20232;-72
2021/10/15 02:30:33;;;;;;;7.05;4.90;;;8.30;99.90;;;;;;5077023;28;20632;-72
2021/10/15 02:33:01;;;;;;;7.63;4.68;;;8.40;99.90;;;;;;5076846;28;20293;-72
2021/10/15 02:35:27;;;;;;;4.22;3.60;;;8.40;99.90;;;;;;5077517;28;20207;-72
2021/10/15 02:37:56;;;;;;;6.75;3.80;;;8.30;99.90;;;;;;5077320;28;20577;-72
2021/10/15 02:40:24;;;;;;;7.70;4.65;;;8.20;99.90;;;;;;5077670;28;20199;-72
2021/10/15 02:42:50;;;;;;;6.72;4.60;;;8.10;99.90;;;;;;5076828;28;20298;-72
2021/10/15 02:45:17;;;;;;;6.72;4.13;;;8.00;99.90;;;;;;5077324;28;20198;-72
2021/10/15 02:47:45;;;;;;;5.38;4.13;;;8.00;99.90;;;;;;5076021;28;20722;-72
2021/10/15 02:50:12;;;;;;;6.40;4.20;;;8.10;99.90;;;;;;5075962;28;20716;-72
2021/10/15 02:52:39;;;;;;;6.50;3.75;;;8.20;99.90;;;;;;5075802;28;20226;-72
2021/10/15 02:55:06;;;;;;;7.95;4.78;;;8.20;99.90;;;;;;5076304;28;20219;-72
2021/10/15 02:57:33;;;;;;;7.03;4.32;;;8.20;99.90;;;;;;5075901;28;20219;-72
2021/10/15 03:00:00;;;;;;;8.18;4.55;;;8.30;99.90;;;;;;5076184;28;20210;-72
2021/10/15 03:02:27;;;;;;;7.60;4.35;;;8.30;99.90;;;;;;5075827;28;20199;-71
2021/10/15 03:04:55;;;;;;;6.07;4.82;;;8.30;99.90;;;;;;5076099;28;20674;-72
2021/10/15 03:07:22;;;;;;;5.00;3.95;;;8.30;99.90;;;;;;5079753;28;20219;-72
2021/10/15 03:09:50;;;;;;;7.70;5.15;;;8.40;99.90;;;;;;5080084;28;20273;-72
2021/10/15 03:12:16;;;;;;;7.30;4.25;;;8.40;99.90;;;;;;5080640;28;20691;-72
2021/10/15 03:14:44;;;;;;;4.35;3.65;;;8.20;99.90;;;;;;5080187;28;20581;-72
2021/10/15 03:17:11;;;;;;;6.30;4.45;;;8.10;99.90;;;;;;5081567;28;20549;-72
2021/10/15 03:19:38;;;;;;;6.15;5.35;;;8.10;99.90;;;;;;5080329;28;20293;-72
2021/10/15 03:22:06;;;;;;;7.20;4.63;;;8.20;99.90;;;;;;5079668;28;20661;-71
2021/10/15 03:24:33;;;;;;;8.43;4.63;;;8.20;99.90;;;;;;5079754;28;20215;-72
2021/10/15 03:27:00;;;;;;;5.28;4.50;;;8.20;99.90;;;;;;5080223;28;20238;-72
2021/10/15 03:29:26;;;;;;;7.75;4.45;;;8.10;99.90;;;;;;5080168;28;20230;-72
2021/10/15 03:31:53;;;;;;;5.95;5.28;;;8.10;99.90;;;;;;5080135;28;20230;-72
2021/10/15 03:34:20;;;;;;;7.13;5.00;;;8.10;99.90;;;;;;5080220;28;20207;-72
2021/10/15 03:36:47;;;;;;;8.10;5.05;;;8.10;99.90;;;;;;5080077;28;20657;-72
2021/10/15 03:39:15;;;;;;;6.90;4.70;;;8.10;99.90;;;;;;5080001;28;20219;-72
2021/10/15 03:41:42;;;;;;;6.30;4.72;;;8.00;99.90;;;;;;5078141;28;20242;-72
2021/10/15 03:44:09;;;;;;;6.32;4.80;;;7.80;99.90;;;;;;5077705;28;20285;-72
2021/10/15 03:46:35;;;;;;;7.25;4.82;;;7.70;99.90;;;;;;5078628;28;20200;-72
2021/10/15 03:49:02;;;;;;;6.55;4.35;;;7.70;99.90;;;;;;5079175;28;20272;-72
2021/10/15 03:51:29;;;;;;;6.65;4.15;;;7.80;99.90;;;;;;5078681;28;20198;-72
2021/10/15 03:53:56;;;;;;;6.65;4.70;;;7.70;99.90;;;;;;5077138;28;20202;-72
2021/10/15 03:56:24;;;;;;;6.30;4.00;;;7.60;99.90;;;;;;5077478;28;20297;-72
2021/10/15 03:58:51;;;;;;;5.47;4.45;;;7.50;99.90;;;;;;5076608;28;20261;-72
2021/10/15 04:01:18;;;;;;;6.57;4.22;;;7.40;99.90;;;;;;5076027;28;20202;-71
2021/10/15 04:03:45;;;;;;;6.40;4.35;;;7.20;99.90;;;;;;5076367;28;20230;-72
2021/10/15 04:06:11;;;;;;;5.65;4.22;;;7.20;99.90;;;;;;5076650;28;20704;-72
2021/10/15 04:08:38;;;;;;;7.40;4.75;;;7.20;99.90;;;;;;5075546;28;20226;-72
2021/10/15 04:11:05;;;;;;;6.75;4.40;;;7.20;99.90;;;;;;5076662;28;20301;-71
2021/10/15 04:13:33;;;;;;;6.68;5.00;;;7.20;99.90;;;;;;5076282;28;20605;-72
2021/10/15 04:16:01;;;;;;;5.60;4.65;;;7.30;99.90;;;;;;5076606;28;20294;-72
2021/10/15 04:18:29;;;;;;;5.32;3.85;;;7.40;99.90;;;;;;5076748;28;20249;-72
2021/10/15 04:20:55;;;;;;;6.50;4.50;;;7.40;99.90;;;;;;5076415;28;20253;-72
2021/10/15 04:23:22;;;;;;;7.35;4.93;;;7.40;99.90;;;;;;5076650;28;20302;-72
2021/10/15 04:25:49;;;;;;;6.88;4.93;;;7.50;99.90;;;;;;5076214;28;20766;-72
2021/10/15 04:28:18;;;;;;;6.95;5.05;;;7.50;99.90;;;;;;5075870;28;20258;-72
2021/10/15 04:30:46;;;;;;;5.35;4.85;;;7.40;99.90;;;;;;5076656;28;20202;-72
2021/10/15 04:33:13;;;;;;;6.70;5.35;;;7.40;99.90;;;;;;5076619;28;20230;-71
2021/10/15 04:35:40;;;;;;;7.82;4.80;;;7.40;99.90;;;;;;5075673;28;20262;-72
2021/10/15 04:38:07;;;;;;;7.22;5.18;;;7.30;99.90;;;;;;5076689;28;20561;-72
2021/10/15 04:40:34;;;;;;;6.72;5.95;;;7.50;99.90;;;;;;5077093;28;20209;-72
2021/10/15 04:43:01;;;;;;;7.03;4.97;;;7.50;99.90;;;;;;5076994;28;20564;-71
2021/10/15 04:45:28;;;;;;;8.07;4.80;;;7.50;99.90;;;;;;5075819;28;20320;-72
2021/10/15 04:47:56;;;;;;;7.97;4.50;;;7.30;99.90;;;;;;5075135;28;20233;-72
2021/10/15 04:50:23;;;;;;;8.43;5.40;;;7.20;99.90;;;;;;5074648;28;20293;-72
2021/10/15 04:52:50;;;;;;;5.88;4.63;;;7.00;99.90;;;;;;5074970;28;20565;-72
2021/10/15 04:55:16;;;;;;;6.68;4.60;;;7.10;99.90;;;;;;5075007;28;20207;-72
2021/10/15 04:57:43;;;;;;;5.05;4.07;;;6.90;99.90;;;;;;5074302;28;20305;-72
2021/10/15 05:00:12;;;;;;;5.88;4.50;;;6.80;99.90;;;;;;5074674;28;20538;-72
2021/10/15 05:02:40;;;;;;;9.80;5.00;;;6.70;99.90;;;;;;5074084;28;20202;-72
2021/10/15 05:05:10;;;;;;;5.80;5.25;;;6.70;99.90;;;;;;5074368;28;20653;-72
2021/10/15 05:07:37;;;;;;;7.75;4.60;;;6.70;99.90;;;;;;5073891;28;20253;-72
2021/10/15 05:10:04;;;;;;;4.93;3.90;;;6.80;99.90;;;;;;5074396;28;20203;-72
2021/10/15 05:12:31;;;;;;;5.78;4.55;;;6.80;99.90;;;;;;5074695;28;20206;-71
2021/10/15 05:14:58;;;;;;;7.50;5.15;;;7.00;99.90;;;;;;5075150;28;20203;-72
2021/10/15 05:17:25;;;;;;;7.15;4.88;;;7.10;99.90;;;;;;5074896;28;20223;-72
2021/10/15 05:19:52;;;;;;;8.98;5.22;;;7.20;99.90;;;;;;5075583;28;20563;-72
2021/10/15 05:22:20;;;;;;;6.60;4.65;;;7.20;99.90;;;;;;5074447;28;20199;-71
2021/10/15 05:24:47;;;;;;;6.70;5.15;;;7.20;99.90;;;;;;5074433;28;20220;-72
2021/10/15 05:27:14;;;;;;;6.78;5.22;;;7.20;99.90;;;;;;5074275;28;20228;-72
2021/10/15 05:29:47;;;;;;;9.02;5.22;;;7.30;99.90;;;;;;5074429;28;20218;-72
2021/10/15 05:32:14;;;;;;;8.98;5.50;;;7.30;99.90;;;;;;5074484;28;20271;-71
2021/10/15 05:34:41;;;;;;;6.30;4.22;;;7.30;99.90;;;;;;5074532;28;20199;-72
2021/10/15 05:37:08;;;;;;;8.38;5.57;;;7.20;99.90;;;;;;5075167;28;20289;-72
2021/10/15 05:39:36;;;;;;;6.50;5.03;;;7.20;99.90;;;;;;5074396;28;20195;-72
2021/10/15 05:42:03;;;;;;;7.95;5.07;;;7.20;99.90;;;;;;5074297;28;20207;-71
2021/10/15 05:44:30;;;;;;;6.93;5.60;;;7.20;99.90;;;;;;5073975;28;20673;-72
2021/10/15 05:46:59;;;;;;;7.60;6.10;;;7.10;99.90;;;;;;5074131;28;20206;-72
2021/10/15 05:49:26;;;;;;;6.97;4.63;;;7.10;99.90;;;;;;5073906;28;20234;-72
2021/10/15 05:52:02;;;;;;;11.52;6.03;;;7.00;99.90;;;;;;5073818;28;20297;-72
2021/10/15 05:54:34;;;;;;;8.98;5.90;;;6.90;99.90;;;;;;5074506;28;20197;-72
2021/10/15 05:57:15;;;;;;;6.80;5.07;;;6.90;99.90;;;;;;5074172;28;20190;-72
2021/10/15 05:59:42;;;;;;;8.93;5.68;;;6.90;99.90;;;;;;5074273;28;20183;-72
2021/10/15 06:02:09;;;;;;;6.55;5.05;;;6.90;99.90;;;;;;5073828;28;20198;-71
2021/10/15 06:15:47;;;;;;;8.00;4.88;;;7.10;99.90;;;;;;5073812;28;20260;-72
2021/10/15 06:18:16;;;;;;;7.63;5.10;;;7.00;99.90;;;;;;5073924;28;20219;-72
2021/10/15 06:20:44;;;;;;;7.10;5.43;;;7.00;99.90;;;;;;5073429;28;20726;-72
2021/10/15 06:23:11;;;;;;;8.43;5.20;;;7.00;99.90;;;;;;5073911;28;20199;-72
2021/10/15 06:25:38;;;;;;;8.43;5.18;;;7.00;99.90;;;;;;5074670;28;20212;-72
2021/10/15 06:28:10;;;;;;;6.25;4.85;;;7.10;99.90;;;;;;5074769;28;20317;-72
2021/10/15 06:30:38;;;;;;;7.80;5.45;;;7.10;99.90;;;;;;5075419;28;20211;-72
2021/10/15 06:33:05;;;;;;;6.68;5.30;;;7.10;99.90;;;;;;5073970;28;20293;-71
2021/10/15 06:35:32;;;;;;;7.18;5.65;;;7.20;99.90;;;;;;5075404;28;20209;-72
2021/10/15 06:37:59;;;;;;;7.70;5.38;;;7.30;99.90;;;;;;5075351;28;20218;-72
2021/10/15 06:40:27;;;;;;;4.88;4.38;;;7.40;99.90;;;;;;5078046;28;20731;-72
2021/10/15 06:42:54;;;;;;;6.65;5.32;;;7.30;99.90;;;;;;5077438;28;20208;-71
2021/10/15 06:45:22;;;;;;;6.80;4.80;;;7.20;99.90;;;;;;5077855;28;20627;-72
2021/10/15 06:47:49;;;;;;;6.80;4.50;;;7.20;99.90;;;;;;5077492;28;20227;-72
2021/10/15 06:50:16;;;;;;;7.03;4.82;;;7.10;99.90;;;;;;5077788;28;20209;-72
2021/10/15 06:52:47;;;;;;;7.07;4.75;;;7.20;99.90;;;;;;5078154;28;20294;-71
2021/10/15 06:55:14;;;;;;;7.97;4.82;;;7.20;99.90;;;;;;5078160;28;20210;-72
2021/10/15 06:57:42;;;;;;;9.30;6.20;;;7.20;99.90;;;;;;5079090;28;20231;-72
2021/10/15 07:00:10;;;;;;;8.57;6.30;;;7.30;99.90;;;;;;5080181;28;20195;-72
2021/10/15 07:02:38;;;;;;;10.93;6.95;;;7.50;99.90;;;;;;5079498;28;20262;-71
2021/10/15 07:05:06;;;;;;;10.18;6.88;;;7.50;99.90;;;;;;5080887;28;20637;-72
2021/10/15 07:07:33;;;;;;;8.55;6.10;;;7.70;99.90;;;;;;5080739;28;20233;-72
2021/10/15 07:10:02;;;;;;;11.98;6.65;;;7.80;99.90;;;;;;5080442;28;20226;-72
2021/10/15 07:12:32;;;;;;;8.50;5.75;;;8.00;99.90;;;;;;5080533;28;20214;-72
2021/10/15 07:14:59;;;;;;;8.52;5.63;;;8.00;99.90;;;;;;5081088;28;20229;-72
2021/10/15 07:17:26;;;;;;;8.20;5.30;;;8.10;99.90;;;;;;5079965;28;20227;-72
2021/10/15 07:19:54;;;;;;;8.82;6.03;;;8.30;99.90;;;;;;5080518;28;20220;-73
2021/10/15 07:22:21;;;;;;;8.10;5.55;;;8.30;99.90;;;;;;5080216;28;20611;-71
2021/10/15 07:24:48;;;;;;;7.55;5.70;;;8.20;99.90;;;;;;5080366;28;20217;-72
2021/10/15 07:27:15;;;;;;;9.77;6.25;;;8.20;99.90;;;;;;5080764;28;20235;-72
2021/10/15 07:29:42;;;;;;;10.25;7.10;;;8.20;99.90;;;;;;5080188;28;20215;-72
2021/10/15 07:32:09;;;;;;;10.05;6.50;;;8.30;99.90;;;;;;5078970;28;20275;-71
2021/10/15 07:34:36;;;;;;;8.40;6.40;;;8.50;99.90;;;;;;5079998;28;20293;-72
2021/10/15 07:37:04;;;;;;;13.13;7.05;;;8.40;99.90;;;;;;5079588;28;20274;-72
2021/10/15 07:39:31;;;;;;;9.80;7.13;;;8.60;99.90;;;;;;5078520;28;20218;-72
2021/10/15 07:41:58;;;;;;;9.10;6.47;;;8.70;99.90;;;;;;5077687;28;20560;-71
2021/10/15 07:44:24;;;;;;;10.15;7.45;;;8.60;99.90;;;;;;5076790;28;20248;-72
2021/10/15 07:46:52;;;;;;;8.52;7.03;;;8.70;99.90;;;;;;5077038;28;20620;-72
2021/10/15 07:49:19;;;;;;;10.95;6.65;;;8.70;99.90;;;;;;5076684;28;20227;-72
2021/10/15 07:51:46;;;;;;;10.50;7.20;;;8.70;99.90;;;;;;5075641;28;20293;-71
2021/10/15 07:54:14;;;;;;;9.80;7.10;;;8.70;99.90;;;;;;5076599;28;20217;-72
2021/10/15 07:56:41;;;;;;;8.18;6.30;;;8.80;99.90;;;;;;5076725;28;20277;-72
2021/10/15 07:59:08;;;;;;;12.00;6.40;;;8.80;99.90;;;;;;5076335;28;20218;-72
2021/10/15 08:01:35;;;;;;;7.65;5.75;;;8.80;99.90;;;;;;5076287;28;20213;-72
2021/10/15 08:04:03;;;;;;;9.25;6.68;;;8.90;99.90;;;;;;5076354;28;20568;-72
2021/10/15 08:06:29;;;;;;;9.95;6.25;;;8.80;99.90;;;;;;5076200;28;20203;-72
2021/10/15 08:08:56;;;;;;;11.32;7.38;;;8.70;99.90;;;;;;5076201;28;20219;-72
2021/10/15 08:11:24;;;;;;;11.05;7.18;;;8.70;99.90;;;;;;5075886;28;20317;-71
2021/10/15 08:13:51;;;;;;;7.45;5.95;;;8.60;99.90;;;;;;5075259;28;20293;-72
2021/10/15 08:16:19;;;;;;;9.05;7.32;;;8.60;99.90;;;;;;5075481;28;20207;-72
2021/10/15 08:18:47;;;;;;;10.57;6.30;;;8.50;99.90;;;;;;5074808;28;20768;-72
2021/10/15 08:21:15;;;;;;;7.82;6.80;;;8.50;99.90;;;;;;5074980;28;20261;-72
2021/10/15 08:23:43;;;;;;;20.60;7.20;;;8.50;99.90;;;;;;5074891;28;20610;-72
2021/10/15 08:26:10;;;;;;;10.88;6.90;;;8.50;99.90;;;;;;5074936;28;20207;-72
2021/10/15 08:28:40;;;;;;;10.13;7.10;;;8.60;99.90;;;;;;5075855;28;20226;-72
2021/10/15 08:31:07;;;;;;;9.68;6.80;;;8.70;99.90;;;;;;5076428;28;20603;-71
2021/10/15 08:33:34;;;;;;;11.45;7.13;;;8.80;99.90;;;;;;5076452;28;20203;-72
2021/10/15 08:36:01;;;;;;;9.40;7.40;;;8.80;99.90;;;;;;5075843;28;20665;-72
2021/10/15 08:38:27;;;;;;;9.82;6.93;;;8.80;99.90;;;;;;5076587;28;20310;-72
2021/10/15 08:40:54;;;;;;;11.18;7.60;;;8.80;99.90;;;;;;5079393;28;20209;-72
2021/10/15 08:43:32;;;;;;;11.63;7.45;;;8.80;99.90;;;;;;5078683;28;20205;-72
2021/10/15 08:46:01;;;;;;;10.52;7.40;;;8.80;99.90;;;;;;5078717;28;20212;-72
2021/10/15 08:48:27;;;;;;;10.27;7.65;;;8.90;99.90;;;;;;5077818;28;20219;-72
2021/10/15 08:50:54;;;;;;;9.48;6.88;;;9.00;99.90;;;;;;5076829;28;20206;-72
2021/10/15 08:53:22;;;;;;;10.23;6.90;;;9.10;99.90;;;;;;5076362;28;20198;-72
2021/10/15 08:55:49;;;;;;;9.80;6.68;;;9.20;99.90;;;;;;5076903;28;20248;-73
2021/10/15 08:58:16;;;;;;;10.98;7.60;;;9.30;99.90;;;;;;5076716;28;20232;-72
2021/10/15 09:00:43;;;;;;;11.07;8.07;;;9.30;99.90;;;;;;5076698;28;20280;-72
2021/10/15 09:03:16;;;;;;;9.63;6.45;;;9.30;99.90;;;;;;5076426;28;20293;-72
2021/10/15 09:05:52;;;;;;;11.95;7.03;;;9.30;99.90;;;;;;5076767;28;20310;-72
2021/10/15 09:08:19;;;;;;;8.57;5.93;;;9.30;99.90;;;;;;5076811;28;20245;-72
2021/10/15 09:10:46;;;;;;;9.93;7.00;;;9.30;99.90;;;;;;5076255;28;20234;-72
2021/10/15 09:13:17;;;;;;;9.70;6.75;;;9.40;99.90;;;;;;5076091;28;20230;-71
2021/10/15 09:15:45;;;;;;;10.68;6.75;;;9.40;99.90;;;;;;5076449;28;20202;-72
2021/10/15 09:18:16;;;;;;;10.13;6.90;;;9.40;99.90;;;;;;5075912;28;20229;-73
2021/10/15 09:20:44;;;;;;;9.35;7.10;;;9.40;99.90;;;;;;5076573;28;20584;-73
2021/10/15 09:23:11;;;;;;;10.13;6.90;;;9.40;99.90;;;;;;5076117;28;20241;-72
2021/10/15 09:25:42;;;;;;;10.02;7.15;;;9.50;99.90;;;;;;5076193;28;20297;-73
2021/10/15 09:28:14;;;;;;;11.80;7.72;;;9.60;99.90;;;;;;5076120;28;20223;-72
2021/10/15 09:30:43;;;;;;;10.68;6.85;;;9.70;99.90;;;;;;5057332;28;20714;-72
2021/10/15 09:33:10;;;;;;;11.88;7.53;;;9.80;99.90;;;;;;5059648;28;20208;-73
2021/10/15 09:35:39;;;;;;;11.88;6.93;;;9.80;99.90;;;;;;5057084;28;20306;-75
2021/10/15 09:38:08;;;;;;;11.18;8.13;;;9.90;99.90;;;;;;5056354;28;20231;-74
2021/10/15 09:40:36;;;;;;;7.85;6.78;;;10.00;99.90;;;;;;5056650;28;20390;-75
2021/10/15 09:43:06;;;;;;;8.90;7.10;;;10.10;99.90;;;;;;5057084;28;20209;-76
2021/10/15 09:45:37;;;;;;;10.20;7.55;;;10.20;99.90;;;;;;5056675;28;20199;-77
2021/10/15 09:48:18;;;;;;;10.13;7.53;;;10.30;99.90;;;;;;5055951;28;20224;-76
2021/10/15 09:50:47;;;;;;;10.38;6.90;;;10.40;99.90;;;;;;5057246;28;20640;-76
2021/10/15 09:53:14;;;;;;;9.82;7.13;;;10.50;99.90;;;;;;5048686;28;20210;-72
2021/10/15 09:55:43;;;;;;;11.75;8.05;;;10.50;99.90;;;;;;5060645;28;20286;-75
2021/10/15 09:58:12;;;;;;;9.05;7.57;;;10.70;99.90;;;;;;5054797;28;20287;-75
2021/10/15 10:00:39;;;;;;;9.00;6.68;;;10.80;99.90;;;;;;5053654;28;20662;-74
2021/10/15 10:03:08;;;;;;;10.55;6.72;;;10.90;99.90;;;;;;5053927;28;20294;-72
2021/10/15 10:05:34;;;;;;;10.20;7.20;;;11.10;99.90;;;;;;5054123;28;20214;-76
2021/10/15 10:08:03;;;;;;;8.98;6.80;;;11.20;99.90;;;;;;5053097;28;20242;-75
2021/10/15 10:10:31;;;;;;;8.57;7.05;;;11.40;99.90;;;;;;5054202;28;20260;-72
2021/10/15 10:12:59;;;;;;;8.43;5.97;;;11.60;99.90;;;;;;5054044;28;20688;-71
2021/10/15 10:15:28;;;;;;;6.20;5.60;;;11.70;99.90;;;;;;5058081;28;20241;-71
2021/10/15 10:18:08;;;;;;;6.45;5.10;;;12.00;99.90;;;;;;5058802;28;20223;-72
2021/10/15 10:20:35;;;;;;;9.50;5.57;;;12.30;99.90;;;;;;5059913;28;20206;-72
2021/10/15 10:23:07;;;;;;;6.82;5.35;;;12.50;99.90;;;;;;5059871;28;20243;-71
2021/10/15 10:25:36;;;;;;;7.60;5.78;;;12.70;99.90;;;;;;5059248;28;20303;-72
2021/10/15 10:28:19;;;;;;;8.40;6.10;;;12.90;99.90;;;;;;5060020;28;20227;-72
2021/10/15 10:30:49;;;;;;;8.35;6.53;;;13.00;99.90;;;;;;5059553;28;20223;-72
2021/10/15 10:33:16;;;;;;;8.02;5.45;;;13.20;99.90;;;;;;5058769;28;20214;-71
2021/10/15 10:35:44;;;;;;;7.47;5.88;;;13.20;99.90;;;;;;5059472;28;20199;-72
2021/10/15 10:38:30;;;;;;;7.13;5.35;;;13.30;99.90;;;;;;5059788;28;20224;-72
2021/10/15 10:41:24;;;;;;;7.90;5.85;;;13.20;99.90;;;;;;5058534;28;20273;-72
2021/10/15 10:44:21;;;;;;;9.30;5.38;;;13.10;99.90;;;;;;5059421;28;20615;-72
2021/10/15 10:47:12;;;;;;;8.70;6.07;;;13.00;99.90;;;;;;5058812;28;20271;-72
2021/10/15 10:49:39;;;;;;;8.93;6.30;;;13.00;99.90;;;;;;5058998;28;20207;-72
2021/10/15 10:52:20;;;;;;;6.80;6.10;;;13.10;99.90;;;;;;5059321;28;20294;-71
2021/10/15 10:54:49;;;;;;;6.97;5.72;;;13.20;99.90;;;;;;5059041;28;20210;-72
2021/10/15 10:57:25;;;;;;;8.40;6.10;;;13.20;99.90;;;;;;5059169;28;20203;-72
2021/10/15 10:59:53;;;;;;;8.10;6.40;;;13.30;99.90;;;;;;5058840;28;20190;-72
2021/10/15 11:02:22;;;;;;;11.60;6.75;;;13.50;99.90;;;;;;5058787;28;20204;-71
2021/10/15 11:04:59;;;;;;;8.98;6.10;;;13.60;99.90;;;;;;5058968;28;20271;-72
2021/10/15 11:07:29;;;;;;;7.70;5.10;;;13.60;99.90;;;;;;5058669;28;20239;-72
2021/10/15 11:10:00;;;;;;;8.07;6.13;;;13.70;99.90;;;;;;5057649;28;20227;-72
2021/10/15 11:13:06;;;;;;;9.80;5.20;;;13.80;99.90;;;;;;5057304;28;20214;-71
2021/10/15 11:15:34;;;;;;;7.20;5.38;;;14.10;99.90;;;;;;5035514;28;20207;-72
2021/10/15 11:18:01;;;;;;;5.35;4.55;;;14.20;99.90;;;;;;5058450;28;20310;-73
2021/10/15 11:20:36;;;;;;;4.80;4.32;;;14.30;99.90;;;;;;5057537;28;20200;-73
2021/10/15 11:23:06;;;;;;;5.28;4.65;;;14.40;99.90;;;;;;5057478;28;20208;-71
2021/10/15 11:25:37;;;;;;;5.13;4.45;;;14.50;99.90;;;;;;5056310;28;20295;-72
2021/10/15 11:28:08;;;;;;;6.38;4.45;;;14.60;99.90;;;;;;5056836;28;20252;-72
2021/10/15 11:30:38;;;;;;;6.72;4.47;;;14.70;99.90;;;;;;5057765;28;20212;-72
2021/10/15 11:33:08;;;;;;;6.10;5.40;;;14.60;99.90;;;;;;5057605;28;20205;-71
2021/10/15 11:35:37;;;;;;;7.35;4.80;;;14.60;99.90;;;;;;5057760;28;20292;-72
2021/10/15 11:38:06;;;;;;;5.88;4.55;;;14.70;99.90;;;;;;5057897;28;20312;-72
2021/10/15 11:40:37;;;;;;;8.60;4.80;;;14.50;99.90;;;;;;5057533;28;20658;-72
2021/10/15 11:43:14;;;;;;;4.78;4.28;;;14.50;99.90;;;;;;5057370;28;20206;-71
2021/10/15 11:45:42;;;;;;;5.88;4.45;;;14.60;99.90;;;;;;5056893;28;20214;-72
2021/10/15 11:48:12;;;;;;;4.43;3.30;;;14.70;99.90;;;;;;5057212;28;20225;-72
2021/10/15 11:50:45;;;;;;;3.60;3.30;;;14.80;99.90;;;;;;5057265;28;20239;-72
2021/10/15 11:53:14;;;;;;;3.53;2.88;;;14.90;99.90;;;;;;5057586;28;20293;-71
2021/10/15 11:55:44;;;;;;;4.00;3.33;;;15.00;99.90;;;;;;5057196;28;20206;-73
2021/10/15 11:58:32;;;;;;;4.28;3.22;;;15.00;99.90;;;;;;5057218;28;20228;-72
2021/10/15 12:01:16;;;;;;;4.78;3.30;;;15.00;99.90;;;;;;5057788;28;20207;-72
2021/10/15 12:03:47;;;;;;;2.97;2.67;;;15.00;99.90;;;;;;5056514;28;20295;-71
2021/10/15 12:06:18;;;;;;;3.67;3.17;;;15.20;99.90;;;;;;5057086;28;20560;-72
2021/10/15 12:08:45;;;;;;;8.63;3.30;;;15.10;99.90;;;;;;5057325;28;20230;-72
2021/10/15 12:11:17;;;;;;;5.05;3.17;;;15.10;99.90;;;;;;5057259;28;20317;-71
2021/10/15 12:13:45;;;;;;;4.15;3.05;;;15.00;99.90;;;;;;5056147;28;20206;-72
2021/10/15 12:16:33;;;;;;;4.88;3.15;;;15.30;99.90;;;;;;5055936;28;20202;-72
2021/10/15 12:19:09;;;;;;;4.85;3.75;;;15.60;99.90;;;;;;5051278;28;20228;-72
2021/10/15 12:21:41;;;;;;;3.50;3.20;;;15.60;99.90;;;;;;5055544;28;20256;-72
2021/10/15 12:24:10;;;;;;;3.78;3.03;;;15.70;99.90;;;;;;5055381;28;20211;-72
2021/10/15 12:26:39;;;;;;;4.07;3.05;;;16.00;99.90;;;;;;5056421;28;20293;-72
2021/10/15 12:29:24;;;;;;;3.85;3.22;;;16.30;99.90;;;;;;5056071;28;20227;-72
2021/10/15 12:32:11;;;;;;;4.30;2.83;;;16.40;99.20;;;;;;5055031;28;20237;-72
2021/10/15 12:34:56;;;;;;;5.20;3.55;;;16.30;99.90;;;;;;5056100;28;20257;-72
2021/10/15 12:37:45;;;;;;;4.00;3.42;;;15.90;99.20;;;;;;5054547;28;20271;-72
2021/10/15 12:40:29;;;;;;;5.25;3.35;;;15.60;99.20;;;;;;5052032;28;20212;-72
2021/10/15 12:43:10;;;;;;;3.58;2.80;;;15.60;99.90;;;;;;5052759;28;20213;-71
2021/10/15 12:45:38;;;;;;;3.33;2.53;;;15.80;99.90;;;;;;5055126;28;20213;-72
2021/10/15 12:48:08;;;;;;;3.53;3.08;;;15.80;99.90;;;;;;5055346;28;20253;-72
2021/10/15 12:50:37;;;;;;;3.50;3.20;;;15.80;99.50;;;;;;5055206;28;20225;-72
2021/10/15 12:53:18;;;;;;;4.60;3.15;;;15.70;99.40;;;;;;5055051;28;20551;-71
2021/10/15 12:56:04;;;;;;;3.65;2.83;;;15.70;99.70;;;;;;5055159;28;20245;-72
2021/10/15 12:58:32;;;;;;;3.15;2.67;;;15.70;99.90;;;;;;5054872;28;20232;-72
2021/10/15 13:01:01;;;;;;;3.38;3.08;;;15.60;99.90;;;;;;5055316;28;20272;-72
2021/10/15 13:03:28;;;;;;;3.30;2.90;;;15.40;99.40;;;;;;5055414;28;20663;-72
2021/10/15 13:05:57;;;;;;;4.40;3.35;;;15.20;99.80;;;;;;5055441;28;20209;-72
2021/10/15 13:08:25;;;;;;;4.43;3.33;;;15.10;99.90;;;;;;5054887;28;20236;-72
2021/10/15 13:10:52;;;;;;;3.17;2.88;;;15.10;99.90;;;;;;5055199;28;20320;-72
2021/10/15 13:13:19;;;;;;;3.58;2.72;;;15.00;99.90;;;;;;5054990;28;20634;-72